Time;durP1;ratioP1;P1;durP2;ratioP2;P2;SDS_P1;SDS_P2;PMS_P1;PMS_P2;Temp;Humidity;BMP_temperature;BMP_pressure;BME280_temperature;BME280_humidity;BME280_pressure;Samples;Min_cycle;Max_cycle;Signal;HPM_P1;HPM_P2
2021/10/29 00:00:56;;;;;;;65.80;43.92;;;7.00;99.90;;;;;;5020361;28;20132;-75
2021/10/29 00:03:22;;;;;;;65.00;43.75;;;6.90;99.90;;;;;;5018383;28;20026;-74
2021/10/29 00:05:48;;;;;;;69.63;44.28;;;6.90;99.90;;;;;;5013894;28;20029;-74
2021/10/29 00:08:13;;;;;;;71.40;45.22;;;6.80;99.90;;;;;;5027020;28;20029;-74
2021/10/29 00:10:39;;;;;;;64.95;43.35;;;6.80;99.90;;;;;;5020760;28;20044;-74
2021/10/29 00:13:05;;;;;;;64.63;42.85;;;6.80;99.90;;;;;;5018494;28;20037;-74
2021/10/29 00:15:32;;;;;;;62.58;43.17;;;6.80;99.90;;;;;;5019788;28;20120;-75
2021/10/29 00:17:58;;;;;;;61.47;42.10;;;6.90;99.90;;;;;;5018262;28;20033;-74
2021/10/29 00:20:24;;;;;;;66.47;43.50;;;6.90;99.90;;;;;;5012711;28;20407;-73
2021/10/29 00:22:50;;;;;;;67.68;43.50;;;7.00;99.90;;;;;;5026527;28;20155;-72
2021/10/29 00:25:15;;;;;;;62.85;42.25;;;6.90;99.90;;;;;;5021179;28;20067;-73
2021/10/29 00:27:42;;;;;;;73.63;46.08;;;7.00;99.90;;;;;;5020187;28;20112;-72
2021/10/29 00:30:08;;;;;;;71.10;45.17;;;7.00;99.90;;;;;;5024387;28;20041;-73
2021/10/29 00:32:34;;;;;;;65.35;43.58;;;6.90;99.90;;;;;;5026515;28;20407;-73
2021/10/29 00:35:00;;;;;;;63.10;42.75;;;6.90;99.90;;;;;;5019846;28;20026;-73
2021/10/29 00:37:25;;;;;;;65.03;43.20;;;6.90;99.90;;;;;;5019589;28;20026;-73
2021/10/29 00:39:51;;;;;;;66.60;43.53;;;7.00;99.90;;;;;;5019363;28;20022;-73
2021/10/29 00:42:17;;;;;;;63.70;42.05;;;7.00;99.90;;;;;;5013205;28;20022;-73
2021/10/29 00:44:43;;;;;;;63.88;43.22;;;6.80;99.90;;;;;;5013234;28;20053;-73
2021/10/29 00:47:09;;;;;;;57.33;40.33;;;6.80;99.90;;;;;;5026534;28;20105;-72
2021/10/29 00:49:34;;;;;;;60.30;40.63;;;6.80;99.90;;;;;;5018966;28;20053;-73
2021/10/29 00:52:00;;;;;;;63.75;41.25;;;6.80;99.90;;;;;;5031723;28;20041;-72
2021/10/29 00:54:26;;;;;;;56.78;40.05;;;6.80;99.90;;;;;;5013065;28;20030;-73
2021/10/29 00:56:52;;;;;;;61.58;41.75;;;6.70;99.90;;;;;;5026076;28;20056;-73
2021/10/29 00:59:18;;;;;;;60.45;39.72;;;6.70;99.90;;;;;;5018097;28;20036;-73
2021/10/29 01:01:48;;;;;;;68.28;43.05;;;6.70;99.90;;;;;;5018584;28;20080;-73
2021/10/29 01:04:14;;;;;;;64.85;42.85;;;6.60;99.90;;;;;;5019135;28;20395;-73
2021/10/29 01:06:41;;;;;;;64.22;42.92;;;6.50;99.90;;;;;;5017882;28;20408;-74
2021/10/29 01:09:07;;;;;;;65.65;43.55;;;6.40;99.90;;;;;;5023551;28;20029;-74
2021/10/29 01:11:32;;;;;;;76.35;46.97;;;6.40;99.90;;;;;;5025802;28;20452;-74
2021/10/29 01:13:58;;;;;;;79.70;46.30;;;6.60;99.90;;;;;;5012798;28;20390;-74
2021/10/29 01:16:23;;;;;;;61.58;42.00;;;6.40;99.90;;;;;;5013458;28;20026;-74
2021/10/29 01:18:49;;;;;;;59.15;41.30;;;6.40;99.90;;;;;;5025108;28;20357;-74
2021/10/29 01:21:16;;;;;;;55.83;38.60;;;6.50;99.90;;;;;;5025610;28;20380;-73
2021/10/29 01:23:41;;;;;;;54.55;37.78;;;6.60;99.90;;;;;;5019373;28;20025;-73
2021/10/29 01:26:10;;;;;;;54.45;38.55;;;6.60;99.90;;;;;;5018742;28;20021;-73
2021/10/29 01:28:36;;;;;;;57.08;39.80;;;6.60;99.90;;;;;;5017962;28;20029;-73
2021/10/29 01:31:02;;;;;;;61.00;41.33;;;6.60;99.90;;;;;;5018869;28;20029;-73
2021/10/29 01:33:29;;;;;;;86.57;48.28;;;6.60;99.90;;;;;;5025472;28;20030;-74
2021/10/29 01:35:55;;;;;;;85.22;47.35;;;6.30;99.90;;;;;;5025566;28;20018;-73
2021/10/29 01:38:22;;;;;;;87.60;47.25;;;6.20;99.90;;;;;;5017804;28;20388;-73
2021/10/29 01:40:47;;;;;;;83.30;47.40;;;6.30;99.90;;;;;;5012045;28;20484;-73
2021/10/29 01:43:13;;;;;;;82.20;46.20;;;6.40;99.90;;;;;;5012266;28;20029;-73
2021/10/29 01:45:39;;;;;;;65.50;42.28;;;6.30;99.90;;;;;;5012117;28;20163;-75
2021/10/29 01:48:04;;;;;;;67.43;43.88;;;6.30;99.90;;;;;;5012184;28;20037;-74
2021/10/29 01:50:30;;;;;;;57.67;39.45;;;6.40;99.90;;;;;;5010789;28;20069;-73
2021/10/29 01:52:56;;;;;;;59.72;39.63;;;6.50;99.90;;;;;;5019070;28;20029;-73
2021/10/29 01:55:21;;;;;;;63.40;41.65;;;6.60;99.90;;;;;;5028687;28;20074;-73
2021/10/29 01:57:47;;;;;;;61.97;41.10;;;6.60;99.90;;;;;;5020163;28;20060;-73
2021/10/29 02:00:13;;;;;;;58.65;38.75;;;6.60;99.90;;;;;;5016779;28;20034;-73
2021/10/29 02:02:43;;;;;;;52.60;36.67;;;6.50;99.90;;;;;;5011846;28;20026;-73
2021/10/29 02:05:09;;;;;;;50.42;35.92;;;6.50;99.90;;;;;;5024963;28;20053;-73
2021/10/29 02:07:35;;;;;;;49.15;35.42;;;6.40;99.90;;;;;;5020801;28;20426;-73
2021/10/29 02:10:01;;;;;;;48.13;35.65;;;6.40;99.90;;;;;;5018327;28;20022;-73
2021/10/29 02:12:27;;;;;;;46.75;32.88;;;6.40;99.90;;;;;;5028926;28;20048;-73
2021/10/29 02:14:53;;;;;;;47.03;33.53;;;6.40;99.90;;;;;;5031531;28;20026;-73
2021/10/29 02:17:19;;;;;;;47.00;33.13;;;6.60;99.90;;;;;;5018389;28;20026;-73
2021/10/29 02:19:44;;;;;;;42.75;32.03;;;6.30;99.90;;;;;;5031174;28;20033;-73
2021/10/29 02:22:10;;;;;;;54.22;35.70;;;6.40;99.90;;;;;;5026876;28;20032;-73
2021/10/29 02:24:35;;;;;;;45.25;32.63;;;6.30;99.90;;;;;;5022605;28;20022;-73
2021/10/29 02:27:02;;;;;;;45.92;34.22;;;6.20;99.90;;;;;;5017001;28;20121;-73
2021/10/29 02:29:28;;;;;;;47.78;35.17;;;6.30;99.90;;;;;;5031354;28;20029;-74
2021/10/29 02:31:53;;;;;;;47.95;34.15;;;6.40;99.90;;;;;;5018012;28;20033;-73
2021/10/29 02:34:19;;;;;;;45.60;32.95;;;6.30;99.90;;;;;;5030263;28;20025;-74
2021/10/29 02:36:45;;;;;;;45.30;33.00;;;6.30;99.90;;;;;;5026486;28;20026;-73
2021/10/29 02:39:11;;;;;;;57.92;37.60;;;6.30;99.90;;;;;;5022903;28;20392;-74
2021/10/29 02:41:37;;;;;;;65.03;37.58;;;6.30;99.90;;;;;;5026697;28;20105;-74
2021/10/29 02:44:03;;;;;;;70.60;39.22;;;6.30;99.90;;;;;;5024676;28;20025;-74
2021/10/29 02:46:29;;;;;;;49.95;34.92;;;6.10;99.90;;;;;;5028950;28;20083;-75
2021/10/29 02:48:55;;;;;;;50.50;34.10;;;6.10;99.90;;;;;;5031256;28;20029;-74
2021/10/29 02:51:20;;;;;;;45.63;32.53;;;6.10;99.90;;;;;;5017948;28;20500;-75
2021/10/29 02:53:46;;;;;;;47.85;33.03;;;6.10;99.90;;;;;;5033349;28;20029;-74
2021/10/29 02:56:11;;;;;;;48.33;33.53;;;6.10;99.90;;;;;;5028902;28;20400;-74
2021/10/29 02:58:37;;;;;;;43.42;31.77;;;6.00;99.90;;;;;;5031175;28;20121;-74
2021/10/29 03:01:03;;;;;;;76.07;39.22;;;6.10;99.90;;;;;;5026411;28;20048;-74
2021/10/29 03:03:30;;;;;;;52.35;34.20;;;5.90;99.90;;;;;;5035808;28;20053;-74
2021/10/29 03:05:56;;;;;;;45.33;33.05;;;5.90;99.90;;;;;;5025310;28;20028;-73
2021/10/29 03:08:22;;;;;;;50.28;34.75;;;6.00;99.90;;;;;;5024441;28;20029;-73
2021/10/29 03:10:48;;;;;;;55.88;35.92;;;6.10;99.90;;;;;;5028431;28;20112;-73
2021/10/29 03:13:13;;;;;;;81.35;39.78;;;6.00;99.90;;;;;;5017854;28;20109;-74
2021/10/29 03:15:40;;;;;;;60.25;36.67;;;5.80;99.90;;;;;;5025479;28;20053;-73
2021/10/29 03:18:05;;;;;;;53.83;34.65;;;5.50;99.90;;;;;;5021727;28;20029;-73
2021/10/29 03:20:31;;;;;;;59.28;36.53;;;5.50;99.90;;;;;;5026327;28;20413;-73
2021/10/29 03:22:56;;;;;;;60.10;36.70;;;5.40;99.90;;;;;;5021508;28;20499;-74
2021/10/29 03:25:22;;;;;;;58.75;36.60;;;5.30;99.90;;;;;;5026160;28;20388;-74
2021/10/29 03:27:47;;;;;;;52.00;34.38;;;5.30;99.90;;;;;;5026688;28;20116;-73
2021/10/29 03:30:13;;;;;;;51.10;35.28;;;5.40;99.90;;;;;;5023685;28;20030;-74
2021/10/29 03:32:38;;;;;;;41.85;32.10;;;5.40;99.90;;;;;;5020988;28;20052;-74
2021/10/29 03:35:06;;;;;;;52.10;35.65;;;5.50;99.90;;;;;;5026474;28;20030;-74
2021/10/29 03:37:58;;;;;;;50.10;35.33;;;5.50;99.90;;;;;;5029088;28;20104;-74
2021/10/29 03:43:53;;;;;;;48.45;33.38;;;5.60;99.90;;;;;;5014958;28;20061;-74
2021/10/29 03:46:30;;;;;;;41.33;30.63;;;5.60;99.90;;;;;;5022045;28;20129;-74
2021/10/29 03:49:03;;;;;;;42.90;32.30;;;5.70;99.90;;;;;;5011975;28;20408;-74
2021/10/29 03:51:38;;;;;;;41.75;32.00;;;5.90;99.90;;;;;;5024450;28;20018;-73
2021/10/29 03:54:12;;;;;;;52.90;35.53;;;6.00;99.90;;;;;;5021254;28;20097;-74
2021/10/29 03:57:37;;;;;;;58.90;36.83;;;5.90;99.90;;;;;;5019921;28;20117;-73
2021/10/29 03:59:32;;;;;;;51.05;34.88;;;5.70;99.90;;;;;;5005199;28;20049;-75
2021/10/29 04:01:58;;;;;;;49.03;34.22;;;5.70;99.90;;;;;;5027037;28;20473;-75
2021/10/29 04:04:24;;;;;;;46.35;33.33;;;5.90;99.90;;;;;;5023936;28;20033;-75
2021/10/29 04:06:50;;;;;;;41.50;30.77;;;6.00;99.90;;;;;;5020340;28;20029;-75
2021/10/29 04:09:16;;;;;;;41.50;30.67;;;6.00;99.90;;;;;;5023621;28;20029;-75
2021/10/29 04:11:41;;;;;;;41.33;30.75;;;5.90;99.90;;;;;;5028807;28;20029;-75
2021/10/29 04:14:13;;;;;;;41.67;29.95;;;5.90;99.90;;;;;;5023490;28;20026;-76
2021/10/29 04:16:40;;;;;;;39.95;29.08;;;5.90;99.90;;;;;;5025597;28;20030;-73
2021/10/29 04:19:08;;;;;;;39.78;29.38;;;5.80;99.90;;;;;;5024767;28;20032;-73
2021/10/29 04:21:35;;;;;;;36.30;26.90;;;5.80;99.90;;;;;;5019958;28;20029;-73
2021/10/29 04:24:01;;;;;;;40.20;28.67;;;5.80;99.90;;;;;;5021745;28;20018;-73
2021/10/29 04:26:27;;;;;;;41.97;31.83;;;5.80;99.90;;;;;;5026717;28;20072;-73
2021/10/29 04:28:55;;;;;;;39.65;29.38;;;5.80;99.90;;;;;;5025063;28;20083;-73
2021/10/29 04:31:24;;;;;;;43.17;30.63;;;5.50;99.90;;;;;;5013327;28;20058;-73
2021/10/29 04:33:51;;;;;;;44.35;30.10;;;5.30;99.90;;;;;;5024375;28;20078;-72
2021/10/29 04:36:18;;;;;;;49.78;34.28;;;5.50;99.90;;;;;;5019845;28;20018;-73
2021/10/29 04:38:48;;;;;;;53.05;34.80;;;5.50;99.90;;;;;;5020205;28;20033;-73
2021/10/29 04:41:15;;;;;;;45.08;31.40;;;5.30;99.90;;;;;;5027691;28;20535;-73
2021/10/29 04:43:40;;;;;;;55.42;36.75;;;5.20;99.90;;;;;;5025798;28;20476;-73
2021/10/29 04:46:06;;;;;;;41.05;29.92;;;5.20;99.90;;;;;;5019796;28;20021;-73
2021/10/29 04:48:32;;;;;;;35.00;27.58;;;5.30;99.90;;;;;;5020712;28;20480;-73
2021/10/29 04:50:58;;;;;;;36.13;27.60;;;5.50;99.90;;;;;;5024728;28;20029;-73
2021/10/29 04:53:24;;;;;;;32.45;26.40;;;5.60;99.90;;;;;;5025378;28;20067;-73
2021/10/29 04:55:51;;;;;;;32.55;26.52;;;5.60;99.90;;;;;;5013855;28;20083;-73
2021/10/29 04:58:16;;;;;;;33.17;26.30;;;5.60;99.90;;;;;;5012919;28;20030;-73
2021/10/29 05:00:42;;;;;;;39.25;27.55;;;5.70;99.90;;;;;;5024820;28;20025;-73
2021/10/29 05:03:08;;;;;;;40.53;29.52;;;5.70;99.90;;;;;;5012786;28;20026;-73
2021/10/29 05:05:37;;;;;;;37.90;28.95;;;5.60;99.90;;;;;;5024853;28;20124;-75
2021/10/29 05:08:03;;;;;;;36.95;29.00;;;5.60;99.90;;;;;;5023163;28;20036;-72
2021/10/29 05:10:29;;;;;;;40.25;29.63;;;5.60;99.90;;;;;;5013317;28;20076;-74
2021/10/29 05:12:54;;;;;;;38.67;29.27;;;5.60;99.90;;;;;;5025041;28;20029;-74
2021/10/29 05:15:21;;;;;;;39.50;30.13;;;5.50;99.90;;;;;;5017875;28;20026;-74
2021/10/29 05:17:47;;;;;;;42.90;31.80;;;5.50;99.90;;;;;;5020012;28;20056;-73
2021/10/29 05:20:14;;;;;;;44.17;31.25;;;5.50;99.90;;;;;;5025508;28;20030;-73
2021/10/29 05:22:39;;;;;;;43.83;30.40;;;5.40;99.90;;;;;;5024864;28;20041;-73
2021/10/29 05:25:05;;;;;;;54.42;34.13;;;5.50;99.90;;;;;;5017720;28;20022;-73
2021/10/29 05:27:31;;;;;;;33.78;26.95;;;5.40;99.90;;;;;;5018975;28;20033;-74
2021/10/29 05:29:56;;;;;;;36.83;27.60;;;5.10;99.90;;;;;;5024679;28;20396;-73
2021/10/29 05:32:22;;;;;;;70.95;55.60;;;5.20;99.90;;;;;;5024257;28;20411;-73
2021/10/29 05:34:47;;;;;;;39.35;29.92;;;4.90;99.90;;;;;;5025610;28;20552;-73
2021/10/29 05:37:13;;;;;;;44.85;32.28;;;4.60;99.90;;;;;;5024274;28;20037;-73
2021/10/29 05:39:38;;;;;;;39.67;29.42;;;4.60;99.90;;;;;;5013343;28;20113;-73
2021/10/29 05:42:04;;;;;;;55.42;39.72;;;4.50;99.90;;;;;;5024450;28;20037;-74
2021/10/29 05:44:30;;;;;;;130.82;84.47;;;4.50;99.90;;;;;;5018566;28;20032;-74
2021/10/29 05:46:56;;;;;;;101.35;68.53;;;4.60;99.90;;;;;;5019180;28;20036;-72
2021/10/29 05:49:23;;;;;;;54.78;39.20;;;4.70;99.90;;;;;;5017955;28;20360;-73
2021/10/29 05:51:50;;;;;;;34.47;26.38;;;4.80;99.90;;;;;;5019347;28;20022;-73
2021/10/29 05:57:04;;;;;;;36.78;27.98;;;5.20;99.90;;;;;;5025574;28;20116;-72
2021/10/29 05:59:33;;;;;;;37.33;28.98;;;5.30;99.90;;;;;;5021394;28;20041;-72
2021/10/29 06:01:59;;;;;;;41.25;31.15;;;5.30;99.90;;;;;;5019468;28;20062;-73
2021/10/29 06:04:25;;;;;;;38.30;29.60;;;5.20;99.90;;;;;;5022956;28;20017;-72
2021/10/29 06:06:52;;;;;;;37.83;29.60;;;5.10;99.90;;;;;;5027575;28;20549;-73
2021/10/29 06:09:18;;;;;;;32.65;26.67;;;5.30;99.90;;;;;;5013099;28;20029;-73
2021/10/29 06:11:44;;;;;;;28.80;24.70;;;5.20;99.90;;;;;;5024936;28;20034;-72
2021/10/29 06:14:10;;;;;;;29.42;24.23;;;5.30;99.90;;;;;;5020911;28;20029;-74
2021/10/29 06:16:35;;;;;;;28.98;23.75;;;5.30;99.90;;;;;;5014860;28;20068;-73
2021/10/29 06:19:01;;;;;;;29.67;24.95;;;5.40;99.90;;;;;;5020286;28;20403;-72
2021/10/29 06:21:38;;;;;;;33.25;25.67;;;5.40;99.90;;;;;;5017037;28;20488;-73
2021/10/29 06:24:09;;;;;;;27.85;22.98;;;5.60;99.90;;;;;;5010938;28;20056;-73
2021/10/29 06:28:10;;;;;;;34.33;25.42;;;5.40;99.90;;;;;;5025022;28;20106;-72
2021/10/29 06:29:23;;;;;;;33.45;26.33;;;5.50;99.90;;;;;;5019797;28;20071;-76
2021/10/29 06:31:49;;;;;;;33.45;26.85;;;5.40;99.90;;;;;;5024490;28;20030;-74
2021/10/29 06:34:15;;;;;;;35.17;26.77;;;5.40;99.90;;;;;;5024955;28;20464;-73
2021/10/29 06:36:41;;;;;;;35.30;27.38;;;5.40;99.90;;;;;;5011516;28;20030;-73
2021/10/29 06:39:08;;;;;;;38.17;28.95;;;5.50;99.90;;;;;;5017415;28;20030;-72
2021/10/29 06:41:34;;;;;;;33.47;26.90;;;5.30;99.90;;;;;;5019756;28;20022;-73
2021/10/29 06:49:10;;;;;;;32.55;25.13;;;5.30;99.90;;;;;;5018063;28;20029;-75
2021/10/29 06:59:57;;;;;;;28.83;23.77;;;5.50;99.90;;;;;;5015555;28;20081;-73
2021/10/29 07:02:54;;;;;;;36.03;26.08;;;5.20;99.90;;;;;;5015149;28;20476;-74
2021/10/29 07:40:41;;;;;;;31.30;26.77;;;5.20;99.90;;;;;;5014341;28;20115;-76
2021/10/29 07:43:09;;;;;;;;;;;5.40;99.90;;;;;;5022525;28;20104;-76
2021/10/29 07:45:35;;;;;;;28.80;24.17;;;5.50;99.90;;;;;;5025777;28;19996;-74
2021/10/29 07:48:01;;;;;;;27.60;23.58;;;5.60;99.90;;;;;;5022285;28;20065;-73
2021/10/29 07:50:26;;;;;;;30.00;25.00;;;5.50;99.90;;;;;;5020502;28;20106;-74
2021/10/29 07:52:55;;;;;;;32.30;25.80;;;5.60;99.90;;;;;;5033893;28;20033;-74
2021/10/29 07:55:24;;;;;;;26.17;22.63;;;5.30;99.90;;;;;;5020751;28;20593;-73
2021/10/29 07:57:51;;;;;;;30.77;25.02;;;5.60;99.90;;;;;;5025073;28;20030;-74
2021/10/29 08:00:18;;;;;;;27.67;23.77;;;5.70;99.90;;;;;;5017482;28;20479;-74
2021/10/29 08:02:46;;;;;;;29.42;23.88;;;5.60;99.90;;;;;;5023046;28;20403;-73
2021/10/29 08:05:12;;;;;;;31.42;25.67;;;5.60;99.90;;;;;;5027606;28;20040;-74
2021/10/29 08:07:38;;;;;;;29.25;23.80;;;5.50;99.90;;;;;;5015475;28;20484;-73
2021/10/29 08:10:06;;;;;;;25.90;23.02;;;5.70;99.90;;;;;;5013125;28;20018;-74
2021/10/29 08:12:33;;;;;;;25.90;23.10;;;5.80;99.90;;;;;;5013503;28;20049;-76
2021/10/29 08:15:00;;;;;;;26.60;23.45;;;5.70;99.90;;;;;;5026997;28;20034;-73
2021/10/29 08:17:26;;;;;;;29.13;23.25;;;5.80;99.90;;;;;;5013593;28;20026;-73
2021/10/29 08:19:51;;;;;;;30.05;22.55;;;5.70;99.90;;;;;;5017337;28;20040;-72
2021/10/29 08:22:17;;;;;;;27.27;22.40;;;5.80;99.90;;;;;;5033299;28;20683;-72
2021/10/29 08:24:43;;;;;;;25.02;22.20;;;6.10;99.90;;;;;;5020130;28;20053;-74
2021/10/29 08:27:09;;;;;;;24.52;20.88;;;6.20;99.90;;;;;;5023167;28;20447;-74
2021/10/29 08:29:38;;;;;;;25.52;22.77;;;6.30;99.90;;;;;;5026780;28;20026;-73
2021/10/29 08:32:05;;;;;;;24.73;21.70;;;6.20;99.90;;;;;;5023776;28;20040;-76
2021/10/29 08:34:31;;;;;;;25.70;22.40;;;6.10;99.90;;;;;;5019970;28;20041;-76
2021/10/29 08:37:01;;;;;;;27.05;22.75;;;6.20;99.90;;;;;;5024047;28;20026;-76
2021/10/29 08:39:28;;;;;;;24.55;21.80;;;6.10;99.90;;;;;;5019286;28;20546;-76
2021/10/29 08:41:58;;;;;;;27.05;22.67;;;6.30;99.90;;;;;;5017927;28;20022;-74
2021/10/29 08:44:25;;;;;;;24.15;21.42;;;6.30;99.90;;;;;;5025036;28;20511;-73
2021/10/29 08:46:50;;;;;;;24.80;22.20;;;6.50;99.90;;;;;;5013061;28;20127;-75
2021/10/29 08:49:17;;;;;;;24.77;22.08;;;6.70;99.90;;;;;;5024161;28;20499;-76
2021/10/29 08:51:44;;;;;;;24.42;20.70;;;6.70;99.90;;;;;;5024704;28;20025;-73
2021/10/29 08:54:11;;;;;;;27.70;21.95;;;6.80;99.90;;;;;;5018380;28;20028;-73
2021/10/29 08:56:37;;;;;;;28.20;24.35;;;6.60;99.90;;;;;;5020918;28;20022;-73
2021/10/29 08:59:29;;;;;;;28.63;23.60;;;6.60;99.90;;;;;;5024781;28;20117;-75
2021/10/29 09:07:17;;;;;;;26.23;23.00;;;6.70;99.90;;;;;;5015150;28;20026;-73
2021/10/29 09:32:25;;;;;;;30.20;25.63;;;6.80;99.90;;;;;;5024861;28;20032;-73
2021/10/29 09:35:05;;;;;;;27.27;23.67;;;6.80;99.90;;;;;;5017553;28;20026;-73
2021/10/29 09:37:36;;;;;;;26.05;23.25;;;7.00;99.90;;;;;;5017505;28;20030;-73
2021/10/29 09:40:08;;;;;;;28.50;23.80;;;6.80;99.90;;;;;;5015738;28;20480;-76
2021/10/29 09:42:38;;;;;;;26.83;22.70;;;6.80;99.90;;;;;;5028495;28;20021;-71
2021/10/29 09:45:12;;;;;;;30.20;23.15;;;6.90;99.90;;;;;;5015981;28;20026;-75
2021/10/29 09:47:39;;;;;;;34.17;22.60;;;7.00;99.90;;;;;;5025538;28;20484;-75
2021/10/29 09:50:24;;;;;;;26.85;22.67;;;7.00;99.90;;;;;;5023728;28;20030;-73
2021/10/29 09:53:03;;;;;;;25.52;22.08;;;6.90;99.90;;;;;;4992499;28;20025;-74
2021/10/29 09:58:15;;;;;;;25.55;22.20;;;7.00;99.90;;;;;;5024115;28;20476;-75
2021/10/29 10:00:41;;;;;;;24.80;22.05;;;7.20;99.90;;;;;;5013039;28;20049;-76
2021/10/29 10:03:09;;;;;;;26.02;23.05;;;7.30;99.90;;;;;;5024060;28;20032;-74
2021/10/29 10:05:36;;;;;;;26.02;21.67;;;7.20;99.90;;;;;;5010619;28;20022;-73
2021/10/29 10:08:01;;;;;;;25.08;22.35;;;7.30;99.90;;;;;;5016614;28;20033;-75
2021/10/29 10:10:29;;;;;;;25.23;21.95;;;7.20;99.90;;;;;;5014247;28;20033;-75
2021/10/29 10:12:57;;;;;;;24.77;21.55;;;7.20;99.90;;;;;;5010395;28;20030;-73
2021/10/29 10:15:23;;;;;;;29.15;23.05;;;7.30;99.90;;;;;;5010711;28;20410;-72
2021/10/29 10:17:51;;;;;;;26.20;21.80;;;7.40;99.90;;;;;;5010860;28;20064;-72
2021/10/29 10:20:18;;;;;;;25.95;22.65;;;7.50;99.90;;;;;;5013388;28;20124;-73
2021/10/29 10:22:48;;;;;;;25.63;22.83;;;7.40;99.90;;;;;;5010282;28;20045;-73
2021/10/29 10:26:12;;;;;;;24.88;21.92;;;7.30;99.90;;;;;;5009228;28;20084;-71
2021/10/29 10:47:06;;;;;;;27.98;22.48;;;7.70;99.90;;;;;;5021859;28;20105;-76
2021/10/29 10:49:52;;;;;;;24.27;21.15;;;7.90;99.90;;;;;;5018842;28;20111;-75
2021/10/29 10:52:25;;;;;;;25.83;22.73;;;7.80;99.90;;;;;;5015698;28;20032;-73
2021/10/29 10:55:00;;;;;;;26.80;21.60;;;7.70;99.90;;;;;;5015205;28;20272;-73
2021/10/29 10:57:49;;;;;;;24.55;21.95;;;7.80;99.90;;;;;;5015264;28;20053;-75
2021/10/29 11:00:21;;;;;;;25.20;22.42;;;8.00;99.90;;;;;;5014501;28;20120;-74
2021/10/29 11:06:02;;;;;;;24.00;21.30;;;8.10;99.90;;;;;;5013116;28;20018;-74
2021/10/29 11:11:13;;;;;;;26.13;22.25;;;8.10;99.90;;;;;;5014542;28;20681;-72
2021/10/29 11:13:45;;;;;;;26.98;21.35;;;8.20;99.90;;;;;;5027168;28;20053;-75
2021/10/29 11:16:22;;;;;;;25.40;21.63;;;8.30;99.90;;;;;;5025872;28;20112;-72
2021/10/29 11:19:01;;;;;;;23.90;20.98;;;8.40;99.90;;;;;;5007716;28;20033;-74
2021/10/29 11:21:34;;;;;;;25.38;21.70;;;8.50;99.90;;;;;;5017644;28;20121;-73
2021/10/29 11:24:02;;;;;;;23.38;20.77;;;8.60;99.90;;;;;;5013634;28;20117;-72
2021/10/29 11:26:39;;;;;;;23.23;19.95;;;8.50;99.90;;;;;;5027844;28;20499;-72
2021/10/29 11:29:05;;;;;;;27.60;21.05;;;8.60;99.90;;;;;;5026333;28;20026;-72
2021/10/29 11:31:36;;;;;;;23.35;20.73;;;8.60;99.90;;;;;;5021189;28;20391;-74
2021/10/29 11:34:05;;;;;;;25.50;22.05;;;8.80;99.90;;;;;;5020850;28;20611;-73
2021/10/29 11:36:37;;;;;;;30.73;23.10;;;9.00;99.90;;;;;;5026403;28;20105;-73
2021/10/29 11:39:10;;;;;;;24.38;21.33;;;9.30;99.90;;;;;;5019186;28;20026;-73
2021/10/29 11:41:39;;;;;;;24.83;20.67;;;9.50;99.90;;;;;;5024288;28;20017;-73
2021/10/29 11:44:12;;;;;;;23.88;20.55;;;9.60;99.90;;;;;;5020106;28;20018;-73
2021/10/29 11:46:39;;;;;;;23.05;19.67;;;9.60;99.90;;;;;;5023297;28;20099;-73
2021/10/29 11:49:10;;;;;;;22.73;20.15;;;9.80;99.90;;;;;;5020766;28;20434;-73
2021/10/29 11:51:37;;;;;;;24.27;19.80;;;9.90;99.90;;;;;;5023535;28;20022;-73
2021/10/29 11:54:16;;;;;;;22.00;19.23;;;10.10;99.90;;;;;;5027471;28;20026;-73
2021/10/29 12:07:23;;;;;;;23.27;19.48;;;9.90;99.90;;;;;;5027402;28;20091;-73
2021/10/29 12:09:54;;;;;;;23.98;19.83;;;9.90;99.90;;;;;;5026443;28;20772;-75
2021/10/29 12:12:25;;;;;;;23.35;20.63;;;9.90;99.90;;;;;;5008959;28;20029;-74
2021/10/29 12:14:53;;;;;;;24.38;19.42;;;9.90;99.90;;;;;;5019071;28;20029;-72
2021/10/29 12:17:29;;;;;;;24.95;19.17;;;10.00;99.90;;;;;;5025379;28;20033;-74
2021/10/29 12:19:58;;;;;;;24.30;19.73;;;10.30;99.90;;;;;;5025402;28;20029;-73
2021/10/29 12:22:32;;;;;;;23.90;19.55;;;10.20;99.90;;;;;;5024073;28;20021;-74
2021/10/29 12:25:06;;;;;;;25.40;20.05;;;10.20;99.90;;;;;;5018858;28;20037;-73
2021/10/29 12:27:39;;;;;;;23.67;20.00;;;10.20;99.90;;;;;;5021410;28;20526;-73
2021/10/29 12:30:26;;;;;;;25.17;19.90;;;10.10;99.90;;;;;;5027015;28;20514;-74
2021/10/29 13:03:46;;;;;;;24.35;19.75;;;10.50;99.90;;;;;;5026432;28;20550;-73
2021/10/29 13:06:16;;;;;;;21.98;19.25;;;10.80;99.90;;;;;;5023762;28;20488;-74
2021/10/29 13:08:46;;;;;;;24.80;20.10;;;10.70;99.90;;;;;;5018196;28;20033;-73
2021/10/29 13:11:13;;;;;;;23.30;19.95;;;10.80;99.90;;;;;;5019720;28;20389;-73
2021/10/29 13:13:42;;;;;;;23.58;20.00;;;10.90;99.90;;;;;;5026343;28;20424;-73
2021/10/29 13:16:13;;;;;;;23.42;19.73;;;10.90;99.90;;;;;;5025018;28;20025;-73
2021/10/29 13:18:59;;;;;;;22.30;19.90;;;10.80;99.90;;;;;;5019203;28;20025;-74
2021/10/29 13:22:12;;;;;;;25.05;20.55;;;10.90;99.90;;;;;;5019111;28;20045;-73
2021/10/29 13:35:40;;;;;;;26.70;21.23;;;11.00;99.90;;;;;;5009544;28;20064;-73
2021/10/29 13:38:09;;;;;;;28.77;20.92;;;11.00;99.90;;;;;;5018294;28;20069;-74
2021/10/29 13:55:04;;;;;;;29.63;23.92;;;11.00;99.90;;;;;;5019004;28;20032;-73
2021/10/29 14:02:48;;;;;;;28.63;23.40;;;10.90;99.90;;;;;;5016764;28;20036;-74
2021/10/29 14:24:31;;;;;;;31.13;26.73;;;10.80;99.90;;;;;;5019513;28;20036;-74
2021/10/29 14:34:44;;;;;;;32.30;26.63;;;10.40;99.90;;;;;;5025432;28;20544;-74
2021/10/29 14:39:58;;;;;;;37.38;27.45;;;10.30;99.90;;;;;;5011930;28;20025;-74
2021/10/29 14:45:01;;;;;;;34.75;26.80;;;10.30;99.90;;;;;;5012140;28;20022;-73
2021/10/29 15:06:12;;;;;;;41.78;31.05;;;9.90;99.90;;;;;;5008333;28;20026;-73
2021/10/29 15:33:18;;;;;;;44.70;34.67;;;8.80;99.90;;;;;;5021372;28;20030;-75
2021/10/29 15:44:40;;;;;;;45.47;35.30;;;8.80;99.90;;;;;;5021474;28;20069;-75
2021/10/29 15:51:41;;;;;;;49.70;36.50;;;8.40;99.90;;;;;;5025819;28;20026;-76
2021/10/29 15:54:09;;;;;;;47.47;36.05;;;8.20;99.90;;;;;;5021127;28;20518;-75
2021/10/29 15:56:43;;;;;;;48.50;36.22;;;7.90;99.90;;;;;;5021480;28;20184;-75
2021/10/29 16:01:46;;;;;;;64.85;51.55;;;8.10;99.90;;;;;;5016775;28;20018;-76
2021/10/29 16:17:53;;;;;;;65.80;44.17;;;7.70;99.90;;;;;;5014113;28;20092;-75
2021/10/29 16:20:19;;;;;;;61.08;41.95;;;7.60;99.90;;;;;;5019746;28;20033;-75
2021/10/29 16:22:45;;;;;;;55.63;40.92;;;7.60;99.90;;;;;;5013205;28;20021;-75
2021/10/29 16:25:15;;;;;;;59.80;43.15;;;7.60;99.90;;;;;;5020284;28;20476;-75
2021/10/29 16:30:06;;;;;;;60.03;42.40;;;7.60;99.90;;;;;;5020648;28;20495;-74
2021/10/29 16:35:17;;;;;;;68.35;43.42;;;7.40;99.90;;;;;;5014393;28;20088;-75
2021/10/29 16:37:44;;;;;;;72.00;46.00;;;7.10;99.90;;;;;;5013272;28;20105;-75
2021/10/29 16:40:11;;;;;;;72.03;45.00;;;6.80;99.90;;;;;;5013209;28;20079;-75
2021/10/29 16:42:37;;;;;;;74.70;47.65;;;6.60;99.90;;;;;;5013173;28;20104;-75
2021/10/29 16:45:04;;;;;;;68.00;45.13;;;6.50;99.90;;;;;;5014807;28;20387;-75
2021/10/29 16:47:30;;;;;;;64.70;42.55;;;6.60;99.90;;;;;;5018276;28;20420;-75
2021/10/29 16:49:57;;;;;;;66.20;43.45;;;6.70;99.90;;;;;;5013198;28;20037;-75
2021/10/29 16:52:22;;;;;;;63.20;42.97;;;6.70;99.90;;;;;;5014659;28;20025;-75
2021/10/29 16:54:48;;;;;;;72.07;44.78;;;6.80;99.90;;;;;;5013146;28;20029;-75
2021/10/29 16:57:14;;;;;;;66.78;46.22;;;6.80;99.90;;;;;;5026431;28;20622;-75
2021/10/29 16:59:40;;;;;;;71.22;46.80;;;6.90;99.90;;;;;;5017732;28;20508;-75
2021/10/29 17:02:06;;;;;;;75.53;49.50;;;6.80;99.90;;;;;;5013722;28;20032;-75
2021/10/29 17:04:31;;;;;;;76.50;51.20;;;6.80;99.90;;;;;;5012886;28;20014;-75
2021/10/29 17:06:57;;;;;;;81.10;53.25;;;6.90;99.90;;;;;;5012753;28;20104;-75
2021/10/29 17:09:23;;;;;;;97.85;61.58;;;6.60;99.90;;;;;;5012735;28;20129;-75
2021/10/29 17:11:49;;;;;;;87.10;55.70;;;6.30;99.90;;;;;;5016082;28;20108;-75
2021/10/29 17:14:14;;;;;;;87.35;57.72;;;6.30;99.90;;;;;;5014130;28;20025;-75
2021/10/29 17:16:40;;;;;;;86.60;59.58;;;6.20;99.90;;;;;;5012626;28;20092;-75
2021/10/29 17:19:05;;;;;;;93.18;64.57;;;6.30;99.90;;;;;;5014841;28;20029;-75
2021/10/29 17:21:31;;;;;;;99.90;66.95;;;6.30;99.90;;;;;;5011368;28;20033;-75
2021/10/29 17:23:56;;;;;;;89.72;62.50;;;6.30;99.90;;;;;;5012614;28;20022;-75
2021/10/29 17:26:22;;;;;;;102.65;62.65;;;6.30;99.90;;;;;;5020042;28;20087;-75
2021/10/29 17:28:47;;;;;;;97.82;56.20;;;6.10;99.90;;;;;;5012467;28;20092;-75
2021/10/29 17:31:13;;;;;;;96.28;55.50;;;5.80;99.90;;;;;;5014228;28;20108;-75
2021/10/29 17:33:38;;;;;;;87.88;54.53;;;5.90;99.90;;;;;;5012473;28;20095;-75